Flight Track Log - Related Links

Times and Time Zones

All times are in EDT time to prevent confusion due to time zone crossing. See the ASH2676 flight status page for this flight to view local times or setup timezone preferences in your user account.

Time Position Orientation Groundspeed Altitude Reporting Facility
EDT Latitude Longitude Course Direction KTS MPH feet Rate Location/Type
Wed 03:43:29 PM 40.1261 -76.7189 215° Southwest 156 180 4,200  Level New York Center
Wed 03:44:29 PM 40.0611 -76.7269 185° South 208 239 6,900 2,550 Climbing New York Center
Wed 03:45:29 PM 39.9961 -76.7322 184° South 234 269 9,300 2,067 Climbing New York Center
Wed 03:46:28 PM 39.9250 -76.7369 183° South 262 302 11,000 2,000 Climbing New York Center
Wed 03:47:29 PM 39.8522 -76.6903 154° Southeast 296 341 13,300 1,574 Climbing New York Center
Wed 03:48:00 PM 40.0289 -76.9124 215° Southwest  Level Estimated
Wed 03:48:30 PM 39.7592 -76.6367 156° South 318 366 14,200  Level New York Center
Wed 03:49:28 PM 39.6822 -76.7139 218° Southwest 286 329 16,200 2,055 Climbing New York Center
Wed 03:49:43 PM 39.6603 -76.7397 222° Southwest 296 341 16,700 2,080 Climbing Washington Center
Wed 03:50:43 PM 39.5969 -76.8303 228° Southwest 321 369 18,800 2,050 Climbing Washington Center
Wed 03:51:43 PM 39.5333 -76.9233 228° Southwest 342 394 20,800 1,850 Climbing Washington Center
Wed 03:52:43 PM 39.4617 -77.0028 221° Southwest 348 400 22,500 1,587 Climbing Washington Center
Wed 03:53:44 PM 39.3775 -77.0736 213° Southwest 358 412 24,000 1,500 Climbing Washington Center
Wed 03:54:43 PM 39.2889 -77.1442 212° Southwest 365 420 25,500 1,250 Climbing Washington Center
Wed 03:55:44 PM 39.1983 -77.2172 212° Southwest 376 433 26,500 1,091 Climbing Washington Center
Wed 03:56:44 PM 39.1056 -77.2928 212° Southwest 390 449 27,700 750 Climbing Washington Center
Wed 03:57:44 PM 39.0108 -77.3681 212° Southwest 397 457 28,000 151 Climbing Washington Center
Wed 03:58:43 PM 38.9181 -77.4406 211° Southwest 397 457 28,000  Level Washington Center
Wed 03:59:44 PM 38.8333 -77.5103 213° Southwest 397 457 28,000  Level Washington Center
Wed 04:00:43 PM 38.7386 -77.5825 211° Southwest 397 457 28,000  Level Washington Center
Wed 04:01:43 PM 38.6433 -77.6597 212° Southwest 397 457 28,000  Level Washington Center
Wed 04:02:44 PM 38.5503 -77.7367 213° Southwest 397 457 28,000  Level Washington Center
Wed 04:03:44 PM 38.4572 -77.8083 211° Southwest 397 457 28,000  Level Washington Center
Wed 04:04:44 PM 38.3619 -77.8850 212° Southwest 397 457 28,000  Level Washington Center
Wed 04:06:00 PM 38.2528 -77.9577 211° Southwest  Level FlightAware Approximate
Wed 04:06:44 PM 38.1714 -78.0347 211° Southwest 402 463 28,000  Level Washington Center
Wed 04:07:44 PM 38.0739 -78.1108 212° Southwest 407 468 28,000  Level Washington Center
Wed 04:08:44 PM 37.9781 -78.2025 217° Southwest 407 468 28,000  Level Washington Center
Wed 04:09:44 PM 37.9175 -78.3003 232° Southwest 393 452 28,000  Level Washington Center
Wed 04:10:44 PM 37.8419 -78.4056 228° Southwest 393 452 28,000  Level Washington Center
Wed 04:11:44 PM 37.7708 -78.5078 229° Southwest 398 458 28,000  Level Washington Center
Wed 04:12:44 PM 37.6972 -78.6128 228° Southwest 398 458 28,000  Level Washington Center
Wed 04:13:44 PM 37.6172 -78.7250 228° Southwest 403 464 28,000  Level Washington Center
Wed 04:14:44 PM 37.5436 -78.8292 228° Southwest 398 458 28,000  Level Washington Center
Wed 04:15:44 PM 37.4719 -78.9283 228° Southwest 398 458 28,000  Level Washington Center
Wed 04:16:44 PM 37.4003 -79.0322 229° Southwest 398 458 28,000  Level Washington Center
Wed 04:17:44 PM 37.3283 -79.1336 228° Southwest 398 458 28,000  Level Washington Center
Wed 04:18:44 PM 37.2589 -79.2217 225° Southwest 398 458 28,000  Level Washington Center
Wed 04:19:44 PM 37.1708 -79.3033 216° Southwest 398 458 28,000  Level Washington Center
Wed 04:20:44 PM 37.0767 -79.3822 214° Southwest 398 458 28,000  Level Washington Center
Wed 04:21:44 PM 36.9825 -79.4608 214° Southwest 410 472 28,000  Level Washington Center
Wed 04:22:44 PM 36.8881 -79.5367 213° Southwest 410 472 28,000  Level Washington Center
Wed 04:23:44 PM 36.7831 -79.6247 214° Southwest 410 472 28,000  Level Washington Center
Wed 04:24:44 PM 36.6864 -79.7025 213° Southwest 410 472 28,000  Level Washington Center
Wed 04:25:43 PM 36.5897 -79.7828 214° Southwest 415 478 28,000  Level Washington Center
Wed 04:26:41 PM 36.5000 -79.8522 212° Southwest 418 481 28,000 -1,475 Level Atlanta Center
Wed 04:27:41 PM 36.4044 -79.9269 212° Southwest 418 481 25,100 -2,900 Descending Atlanta Center
Wed 04:28:41 PM 36.3131 -80.0011 213° Southwest 413 475 22,200 -1,750 Descending Atlanta Center
Wed 04:29:41 PM 36.2400 -80.0667 216° Southwest 390 449 21,600 -1,200 Descending Atlanta Center
Wed 04:30:41 PM 36.1589 -80.1375 215° Southwest 372 428 19,800 -1,900 Descending Atlanta Center
Wed 04:31:41 PM 36.0736 -80.2108 215° Southwest 372 428 17,800 -2,100 Descending Atlanta Center
Wed 04:32:41 PM 35.9842 -80.2869 215° Southwest 367 422 15,600 -2,067 Descending Atlanta Center
Wed 04:33:11 PM 35.9478 -80.3247 220° Southwest 355 409 14,700 -1,900 Descending Atlanta Center
Wed 04:33:41 PM 35.9031 -80.3575 211° Southwest 367 422 13,700 -1,672 Descending Atlanta Center
Wed 04:34:12 PM 35.8664 -80.3897 215° Southwest 350 403 13,000 -800 Descending Atlanta Center
Wed 04:34:41 PM 35.8297 -80.4197 214° Southwest 361 415 12,900 -787 Descending Atlanta Center
Wed 04:35:13 PM 35.7972 -80.4519 219° Southwest 262 302 12,200 -1,400 Descending Atlanta Center
Wed 04:35:41 PM 35.7686 -80.4711 209° Southwest 301 346 11,500 -1,180 Descending Atlanta Center
Wed 04:36:14 PM 35.7314 -80.4803 191° South 243 280 11,000 -500 Descending Atlanta Center
Wed 04:36:41 PM 35.6981 -80.4844 186° South 259 298 11,000 -885 Level Atlanta Center
Wed 04:37:15 PM 35.6608 -80.4911 188° South 255 293 10,100 -1,600 Descending Atlanta Center
Wed 04:37:41 PM 35.6294 -80.4925 182° South 251 289 9,400 -1,574 Descending Atlanta Center
Wed 04:38:16 PM 35.5922 -80.5017 191° South 251 289 8,500 -1,600 Descending Atlanta Center
Wed 04:38:41 PM 35.5608 -80.5006 178° South 251 289 7,800 -1,475 Descending Atlanta Center
Wed 04:39:17 PM 35.5281 -80.5172 202° Southwest 245 282 7,000 -1,200 Descending Atlanta Center
Wed 04:39:41 PM 35.5058 -80.5436 224° Southwest 244 281 6,600 -984 Descending Atlanta Center
Wed 04:40:18 PM 35.4775 -80.5806 227° Southwest 241 277 6,000 -600 Descending Atlanta Center
Wed 04:40:41 PM 35.4614 -80.6017 227° Southwest 233 268 6,000  Level Atlanta Center
Wed 04:41:19 PM 35.4356 -80.6411 231° Southwest 230 265 6,000  Level Atlanta Center
Wed 04:41:41 PM 35.4211 -80.6544 217° Southwest 233 268 6,000  Level Atlanta Center
Wed 04:42:20 PM 35.3953 -80.6936 231° Southwest 208 239 6,000 -200 Level Atlanta Center
Wed 04:42:41 PM 35.3850 -80.7067 226° Southwest 220 253 5,800 -1,105 Descending Atlanta Center
Wed 04:42:58 PM 35.3736 -80.7225 229° Southwest 202 232 5,300 -1,622 Descending FAA TRACON SMA TRACON (SMA)
Wed 04:43:18 PM 35.3622 -80.7386 229° Southwest 202 232 4,800 -1,500 Descending FAA TRACON SMA TRACON (SMA)
Wed 04:43:38 PM 35.3481 -80.7586 229° Southwest 202 232 4,300 -1,077 Descending FAA TRACON SMA TRACON (SMA)
Wed 04:43:57 PM 35.3369 -80.7733 227° Southwest 202 232 4,100 -923 Descending FAA TRACON SMA TRACON (SMA)
Wed 04:44:17 PM 35.3250 -80.7900 229° Southwest 200 230 3,700 -1,050 Descending FAA TRACON SMA TRACON (SMA)
Wed 04:44:37 PM 35.3119 -80.8081 228° Southwest 190 219 3,400 -900 Descending FAA TRACON SMA TRACON (SMA)
Wed 04:44:57 PM 35.3033 -80.8197 228° Southwest 158 182 3,100 -900 Descending FAA TRACON SMA TRACON (SMA)
Wed 04:45:17 PM 35.2944 -80.8322 229° Southwest 160 184 2,800 -900 Descending FAA TRACON SMA TRACON (SMA)
Wed 04:45:37 PM 35.2833 -80.8478 229° Southwest 157 181 2,500 -732 Descending FAA TRACON SMA TRACON (SMA)
Wed 04:45:58 PM 35.2744 -80.8600 228° Southwest 155 178 2,300 -600 Descending FAA TRACON SMA TRACON (SMA)
Wed 04:46:17 PM 35.2664 -80.8708 228° Southwest 146 168 2,100 -769 Descending FAA TRACON SMA TRACON (SMA)
Wed 04:46:37 PM 35.2567 -80.8828 225° Southwest 137 158 1,800 -769 Descending FAA TRACON SMA TRACON (SMA)
Wed 04:46:56 PM 35.2500 -80.8933 232° Southwest 132 152 1,600 -600 Descending FAA TRACON SMA TRACON (SMA)
Wed 04:47:17 PM 35.2425 -80.9039 229° Southwest 131 151 1,400 -732 Descending FAA TRACON SMA TRACON (SMA)
Wed 04:47:37 PM 35.2331 -80.9167 228° Southwest 131 151 1,100 -732 Descending FAA TRACON SMA TRACON (SMA)
Wed 04:47:58 PM 35.2261 -80.9264 229° Southwest 129 148 900 -439 Descending FAA TRACON SMA TRACON (SMA)
Wed 04:48:18 PM 35.2242 -80.9289 226° Southwest 127 146 800 -300 Descending FAA TRACON SMA TRACON (SMA)

Login

Don't have an account? Register now (free) for customized features, flight alerts, and more!